Airfield :
LOGIN :

Register | Disclaimer

   EN    FR    IT 

 










Legend :    VFR   Marginal VFR   IFR   Intensive IFR   Very Intensive IFR
Visi :
Ceiling :
>= 8 km
>= 3000ft
5 to 8 km
1000 to 3000 ft
1500m to 5 km
500 to 1000 ft
800 to 1500m
200 to 500 ft
< 800m
< 200 ft
Symbols :   Thunderstorms  Fog  Heavy snow  Heavy precipitations  Wind > 20 kt
SIGMETs :     Misc.  Thunderstorms  Icing  Turbulence  Mountain Waves  Volcanic Ashes






- Airport Elevation : 160 ft
- IATA code : LRT


LFRH - Lorient Lann Bihoue

CURRENT METAR :
  • 230100Z AUTO 18008KT 9999 BKN016/// BKN033/// OVC046/// ///TCU 05/03 Q0996 BECMG 22015G30KT 2000 RA BKN010 OVC015CB

EXPIRED METARs :
  • 230030Z AUTO 20015KT 8000 RA FEW023/// BKN030/// OVC036/// ///CB 06/03 Q0997 BECMG 22015G30KT 2000 RA BKN010 OVC015CB
  • 230000Z AUTO 21011KT 9999 FEW029/// BKN064/// BKN078/// ///TCU 08/04 Q0998 BECMG 22015G30KT 2000 RA BKN010 OVC015CB
  • 222330Z AUTO 21006KT 9999 SCT028 BKN044 BKN120 06/04 Q0999 BECMG 22015G30KT 2000 RA BKN010 OVC015CB
  • 222300Z AUTO 21006KT 9999 SCT030 BKN049 BKN140 05/03 Q0999 BECMG 26020G30KT 2000 +RA BKN010 OVC015CB
  • 222230Z AUTO 17004KT 9999 FEW034 BKN160 OVC180 03/01 Q1000 BECMG 26020G30KT 2000 +RA BKN010 OVC015CB

TAF TAF LFRH
Valid from the 23 at 00:00 until the 24 at 00:00 UTC


222300Z 2300/2324 20005KT 9999 SCT030 BKN040
BECMG 2300/2302 22015G30KT 2000 RA BKN010 OVC015CB
BECMG 2305/2307 32015G25KT 9999 NSW BKN014
TEMPO 2307/2310 32025G40KT
BECMG 2310/2312 32015KT CAVOK
TEMPO 2312/2321 SCT015TCU
BECMG 2316/2318 VRB02KT



MET'MAP, your aeronautical weather chart ! - Copyright ORBIFLY December 2007 - Disclaimer

ORBIFLY MET'MAP TEAM :

Programming & Development : Alexandra Zaïnal
Concept & original design : Baudouin d'Aumeries
Assistance for programming : Marc-Olivier Méhu
Technical & hardware support : Manuel Goepfert

Contact : metmap@orbifly.com




SOURCES & CREDITS :

   NOAA